createdAt,value
2023-04-26T00:00:00.000Z,7.65
2023-04-26T00:15:00.000Z,7.77
2023-04-26T00:30:00.000Z,7.68
2023-04-26T00:45:00.000Z,7.68
2023-04-26T01:00:00.000Z,7.75
2023-04-26T01:15:00.000Z,7.78
2023-04-26T01:30:00.000Z,7.73
2023-04-26T01:45:00.000Z,7.81
2023-04-26T02:00:00.000Z,7.63
2023-04-26T02:15:00.000Z,7.51
2023-04-26T02:30:00.000Z,7.37
2023-04-26T02:45:00.000Z,7.32
2023-04-26T03:00:00.000Z,7.3
2023-04-26T03:15:00.000Z,7.38
2023-04-26T03:30:00.000Z,7.28
2023-04-26T03:45:00.000Z,7.03
2023-04-26T04:00:00.000Z,6.91
2023-04-26T04:15:00.000Z,6.86
2023-04-26T04:30:00.000Z,6.83
2023-04-26T04:45:00.000Z,6.95
2023-04-26T05:00:00.000Z,7.18
2023-04-26T05:15:00.000Z,7.49
2023-04-26T05:30:00.000Z,7.72
2023-04-26T05:45:00.000Z,8.11
2023-04-26T06:00:00.000Z,8.43
2023-04-26T06:15:00.000Z,8.63
2023-04-26T06:30:00.000Z,8.4
2023-04-26T06:45:00.000Z,8.82
2023-04-26T07:00:00.000Z,9.29
2023-04-26T07:15:00.000Z,9.71
2023-04-26T07:30:00.000Z,9.89
2023-04-26T07:45:00.000Z,10.78
2023-04-26T08:00:00.000Z,13.03
2023-04-26T08:15:00.000Z,13.31
2023-04-26T08:30:00.000Z,13.22
2023-04-26T08:45:00.000Z,12.47
2023-04-26T09:00:00.000Z,12.13
2023-04-26T09:15:00.000Z,12.64
2023-04-26T09:30:00.000Z,15.66
2023-04-26T09:45:00.000Z,13.86
2023-04-26T10:00:00.000Z,14.56
2023-04-26T10:15:00.000Z,13.94
2023-04-26T10:30:00.000Z,14.2
2023-04-26T10:45:00.000Z,14.37
2023-04-26T11:00:00.000Z,14.29
2023-04-26T11:15:00.000Z,14.77
2023-04-26T11:30:00.000Z,13.98
2023-04-26T11:45:00.000Z,14.06
2023-04-26T12:00:00.000Z,14.24
2023-04-26T12:15:00.000Z,14.8
2023-04-26T12:30:00.000Z,15.07
2023-04-26T12:45:00.000Z,15.27
2023-04-26T13:00:00.000Z,14.09
2023-04-26T13:15:00.000Z,13.81
2023-04-26T13:30:00.000Z,14.31
2023-04-26T13:45:00.000Z,14.67
2023-04-26T14:00:00.000Z,14.62
2023-04-26T14:15:00.000Z,14.11
2023-04-26T14:30:00.000Z,14.18
2023-04-26T14:45:00.000Z,14.42
2023-04-26T15:00:00.000Z,14.04
2023-04-26T15:15:00.000Z,13.71
2023-04-26T15:30:00.000Z,13.79
2023-04-26T15:45:00.000Z,13.38
2023-04-26T16:00:00.000Z,13.51
2023-04-26T16:15:00.000Z,13.22
2023-04-26T16:30:00.000Z,13
2023-04-26T16:45:00.000Z,12.78
2023-04-26T17:00:00.000Z,12.55
2023-04-26T17:15:00.000Z,12.44
2023-04-26T17:30:00.000Z,12.44
2023-04-26T17:45:00.000Z,12.16
2023-04-26T18:00:00.000Z,11.82
2023-04-26T18:15:00.000Z,11.71
2023-04-26T18:30:00.000Z,11.58
2023-04-26T18:45:00.000Z,11.16
2023-04-26T19:00:00.000Z,10.93
2023-04-26T19:15:00.000Z,10.61
2023-04-26T19:30:00.000Z,10.33
2023-04-26T19:45:00.000Z,10.18
2023-04-26T20:00:00.000Z,9.92
2023-04-26T20:15:00.000Z,9.57
2023-04-26T20:30:00.000Z,9.36
2023-04-26T20:45:00.000Z,9.09
2023-04-26T21:00:00.000Z,8.95
2023-04-26T21:15:00.000Z,8.69
2023-04-26T21:30:00.000Z,8.67
2023-04-26T21:45:00.000Z,8.65
2023-04-26T22:00:00.000Z,8.51
2023-04-26T22:15:00.000Z,8.39
2023-04-26T22:30:00.000Z,8.23
2023-04-26T22:45:00.000Z,8.11
2023-04-26T23:00:00.000Z,7.9
2023-04-26T23:15:00.000Z,7.87
2023-04-26T23:30:00.000Z,8.09
2023-04-26T23:45:00.000Z,8.03
